sensor_id;sensor_type;location;lat;lon;timestamp;pressure;altitude;pressure_sealevel;temperature;humidity
7662;BME280;30314;48.184;11.510;2022-07-29T00:01:57;95872.59;;;19.12;95.10
7662;BME280;30314;48.184;11.510;2022-07-29T00:04:26;95878.91;;;19.04;96.58
7662;BME280;30314;48.184;11.510;2022-07-29T00:06:54;95866.66;;;18.90;96.98
7662;BME280;30314;48.184;11.510;2022-07-29T00:09:22;95869.31;;;19.02;97.70
7662;BME280;30314;48.184;11.510;2022-07-29T00:11:49;95862.41;;;19.01;96.95
7662;BME280;30314;48.184;11.510;2022-07-29T00:14:17;95857.94;;;18.93;97.87
7662;BME280;30314;48.184;11.510;2022-07-29T00:16:45;95866.19;;;19.00;97.39
7662;BME280;30314;48.184;11.510;2022-07-29T00:19:12;95864.66;;;18.99;98.74
7662;BME280;30314;48.184;11.510;2022-07-29T00:21:41;95844.53;;;18.93;98.36
7662;BME280;30314;48.184;11.510;2022-07-29T00:24:09;95866.97;;;19.01;99.38
7662;BME280;30314;48.184;11.510;2022-07-29T00:26:37;95873.97;;;19.06;100.00
7662;BME280;30314;48.184;11.510;2022-07-29T00:29:04;95847.06;;;18.86;100.00
7662;BME280;30314;48.184;11.510;2022-07-29T00:31:52;95859.50;;;18.94;100.00
7662;BME280;30314;48.184;11.510;2022-07-29T00:34:20;95860.88;;;18.88;100.00
7662;BME280;30314;48.184;11.510;2022-07-29T00:37:06;95862.88;;;18.91;100.00
7662;BME280;30314;48.184;11.510;2022-07-29T00:39:34;95871.16;;;18.86;100.00
7662;BME280;30314;48.184;11.510;2022-07-29T00:42:03;95859.56;;;18.82;100.00
7662;BME280;30314;48.184;11.510;2022-07-29T00:44:30;95860.09;;;18.71;100.00
7662;BME280;30314;48.184;11.510;2022-07-29T00:47:03;95848.16;;;18.69;100.00
7662;BME280;30314;48.184;11.510;2022-07-29T00:49:32;95843.31;;;18.74;100.00
7662;BME280;30314;48.184;11.510;2022-07-29T00:52:00;95837.09;;;18.70;100.00
7662;BME280;30314;48.184;11.510;2022-07-29T00:54:30;95844.03;;;18.71;100.00
7662;BME280;30314;48.184;11.510;2022-07-29T00:56:58;95837.53;;;18.72;100.00
7662;BME280;30314;48.184;11.510;2022-07-29T00:59:27;95830.16;;;18.69;100.00
7662;BME280;30314;48.184;11.510;2022-07-29T01:02:01;95833.09;;;18.64;100.00
7662;BME280;30314;48.184;11.510;2022-07-29T01:04:29;95817.81;;;18.49;100.00
7662;BME280;30314;48.184;11.510;2022-07-29T01:06:58;95827.22;;;18.58;100.00
7662;BME280;30314;48.184;11.510;2022-07-29T01:09:29;95825.78;;;18.61;100.00
7662;BME280;30314;48.184;11.510;2022-07-29T01:12:15;95800.84;;;18.44;100.00
7662;BME280;30314;48.184;11.510;2022-07-29T01:14:44;95825.56;;;18.54;100.00
7662;BME280;30314;48.184;11.510;2022-07-29T01:17:18;95827.56;;;18.57;100.00
7662;BME280;30314;48.184;11.510;2022-07-29T01:19:53;95822.13;;;18.53;100.00
7662;BME280;30314;48.184;11.510;2022-07-29T01:22:31;95816.56;;;18.46;100.00
7662;BME280;30314;48.184;11.510;2022-07-29T01:25:15;95819.00;;;18.51;100.00
7662;BME280;30314;48.184;11.510;2022-07-29T01:27:54;95822.63;;;18.43;100.00
7662;BME280;30314;48.184;11.510;2022-07-29T01:30:32;95829.19;;;18.45;100.00
7662;BME280;30314;48.184;11.510;2022-07-29T01:33:03;95821.50;;;18.44;100.00
7662;BME280;30314;48.184;11.510;2022-07-29T01:35:35;95817.16;;;18.39;100.00
7662;BME280;30314;48.184;11.510;2022-07-29T01:38:08;95811.53;;;18.28;100.00
7662;BME280;30314;48.184;11.510;2022-07-29T01:40:44;95811.88;;;18.27;100.00
7662;BME280;30314;48.184;11.510;2022-07-29T01:43:17;95813.84;;;18.30;100.00
7662;BME280;30314;48.184;11.510;2022-07-29T01:45:50;95811.03;;;18.10;100.00
7662;BME280;30314;48.184;11.510;2022-07-29T01:48:23;95826.41;;;18.13;100.00
7662;BME280;30314;48.184;11.510;2022-07-29T01:51:09;95828.66;;;18.11;100.00
7662;BME280;30314;48.184;11.510;2022-07-29T01:53:50;95822.06;;;18.09;100.00
7662;BME280;30314;48.184;11.510;2022-07-29T01:56:23;95815.03;;;18.16;100.00
7662;BME280;30314;48.184;11.510;2022-07-29T01:58:52;95813.72;;;18.10;100.00
7662;BME280;30314;48.184;11.510;2022-07-29T02:01:23;95816.19;;;18.03;100.00
7662;BME280;30314;48.184;11.510;2022-07-29T02:03:53;95813.28;;;18.08;100.00
7662;BME280;30314;48.184;11.510;2022-07-29T02:06:22;95807.59;;;17.97;100.00
7662;BME280;30314;48.184;11.510;2022-07-29T02:08:52;95805.47;;;18.03;100.00
7662;BME280;30314;48.184;11.510;2022-07-29T02:11:21;95774.78;;;17.84;100.00
7662;BME280;30314;48.184;11.510;2022-07-29T02:13:49;95792.34;;;17.98;100.00
7662;BME280;30314;48.184;11.510;2022-07-29T02:16:22;95795.13;;;18.01;100.00
7662;BME280;30314;48.184;11.510;2022-07-29T02:18:52;95786.75;;;18.03;100.00
7662;BME280;30314;48.184;11.510;2022-07-29T02:21:24;95784.19;;;17.94;100.00
7662;BME280;30314;48.184;11.510;2022-07-29T02:23:52;95775.84;;;18.08;100.00
7662;BME280;30314;48.184;11.510;2022-07-29T02:26:23;95781.03;;;18.17;100.00
7662;BME280;30314;48.184;11.510;2022-07-29T02:28:54;95778.72;;;18.31;100.00
7662;BME280;30314;48.184;11.510;2022-07-29T02:31:26;95773.22;;;18.40;100.00
7662;BME280;30314;48.184;11.510;2022-07-29T02:33:57;95776.16;;;18.35;100.00
7662;BME280;30314;48.184;11.510;2022-07-29T02:36:27;95764.88;;;18.13;100.00
7662;BME280;30314;48.184;11.510;2022-07-29T02:38:56;95784.84;;;18.16;100.00
7662;BME280;30314;48.184;11.510;2022-07-29T02:41:29;95776.72;;;18.00;100.00
7662;BME280;30314;48.184;11.510;2022-07-29T02:44:05;95779.28;;;17.96;100.00
7662;BME280;30314;48.184;11.510;2022-07-29T02:46:36;95773.75;;;17.89;100.00
7662;BME280;30314;48.184;11.510;2022-07-29T02:49:10;95784.78;;;17.87;100.00
7662;BME280;30314;48.184;11.510;2022-07-29T02:51:43;95779.00;;;17.85;100.00
7662;BME280;30314;48.184;11.510;2022-07-29T02:54:20;95792.41;;;17.73;100.00
7662;BME280;30314;48.184;11.510;2022-07-29T02:56:50;95773.56;;;17.69;100.00
7662;BME280;30314;48.184;11.510;2022-07-29T02:59:24;95770.81;;;17.66;100.00
7662;BME280;30314;48.184;11.510;2022-07-29T03:01:57;95756.91;;;17.60;100.00
7662;BME280;30314;48.184;11.510;2022-07-29T03:04:27;95761.72;;;17.54;100.00
7662;BME280;30314;48.184;11.510;2022-07-29T03:06:58;95776.50;;;17.52;100.00
7662;BME280;30314;48.184;11.510;2022-07-29T03:09:27;95764.50;;;17.45;100.00
7662;BME280;30314;48.184;11.510;2022-07-29T03:11:56;95770.50;;;17.42;100.00
7662;BME280;30314;48.184;11.510;2022-07-29T03:14:25;95755.72;;;17.20;100.00
7662;BME280;30314;48.184;11.510;2022-07-29T03:16:53;95773.88;;;17.27;100.00
7662;BME280;30314;48.184;11.510;2022-07-29T03:19:22;95777.78;;;17.17;100.00
7662;BME280;30314;48.184;11.510;2022-07-29T03:21:50;95767.66;;;17.10;100.00
7662;BME280;30314;48.184;11.510;2022-07-29T03:24:30;95776.97;;;17.04;100.00
7662;BME280;30314;48.184;11.510;2022-07-29T03:26:58;95778.09;;;17.03;100.00
7662;BME280;30314;48.184;11.510;2022-07-29T03:29:26;95770.19;;;16.94;100.00
7662;BME280;30314;48.184;11.510;2022-07-29T03:32:01;95750.91;;;16.76;100.00
7662;BME280;30314;48.184;11.510;2022-07-29T03:34:35;95747.47;;;16.63;100.00
7662;BME280;30314;48.184;11.510;2022-07-29T03:37:03;95765.72;;;16.73;100.00
7662;BME280;30314;48.184;11.510;2022-07-29T03:39:35;95766.03;;;16.72;100.00
7662;BME280;30314;48.184;11.510;2022-07-29T03:42:06;95746.91;;;16.57;100.00
7662;BME280;30314;48.184;11.510;2022-07-29T03:44:38;95769.50;;;16.72;100.00
7662;BME280;30314;48.184;11.510;2022-07-29T03:47:09;95777.28;;;16.65;100.00
7662;BME280;30314;48.184;11.510;2022-07-29T03:49:40;95780.16;;;16.60;100.00
7662;BME280;30314;48.184;11.510;2022-07-29T03:52:08;95776.56;;;16.56;100.00
7662;BME280;30314;48.184;11.510;2022-07-29T03:54:36;95780.56;;;16.49;100.00
7662;BME280;30314;48.184;11.510;2022-07-29T03:57:05;95782.72;;;16.56;100.00
7662;BME280;30314;48.184;11.510;2022-07-29T03:59:33;95793.91;;;16.49;100.00
7662;BME280;30314;48.184;11.510;2022-07-29T04:02:02;95796.34;;;16.42;100.00
7662;BME280;30314;48.184;11.510;2022-07-29T04:04:32;95781.22;;;16.34;100.00
7662;BME280;30314;48.184;11.510;2022-07-29T04:07:02;95779.97;;;16.31;100.00
7662;BME280;30314;48.184;11.510;2022-07-29T04:09:31;95789.25;;;16.46;100.00
7662;BME280;30314;48.184;11.510;2022-07-29T04:11:59;95797.56;;;16.45;100.00
7662;BME280;30314;48.184;11.510;2022-07-29T04:14:30;95796.41;;;16.33;100.00
7662;BME280;30314;48.184;11.510;2022-07-29T04:16:59;95792.19;;;16.32;100.00
7662;BME280;30314;48.184;11.510;2022-07-29T04:19:27;95786.53;;;16.34;100.00
7662;BME280;30314;48.184;11.510;2022-07-29T04:21:55;95786.13;;;16.57;100.00
7662;BME280;30314;48.184;11.510;2022-07-29T04:24:24;95797.03;;;16.52;100.00
7662;BME280;30314;48.184;11.510;2022-07-29T04:26:52;95792.81;;;16.51;100.00
7662;BME280;30314;48.184;11.510;2022-07-29T04:29:20;95795.22;;;16.43;100.00
7662;BME280;30314;48.184;11.510;2022-07-29T04:31:48;95800.38;;;16.48;100.00
7662;BME280;30314;48.184;11.510;2022-07-29T04:34:16;95801.00;;;16.45;100.00
7662;BME280;30314;48.184;11.510;2022-07-29T04:36:44;95812.63;;;16.62;100.00
7662;BME280;30314;48.184;11.510;2022-07-29T04:39:12;95803.50;;;16.63;100.00
7662;BME280;30314;48.184;11.510;2022-07-29T04:41:49;95786.25;;;16.60;100.00
7662;BME280;30314;48.184;11.510;2022-07-29T04:44:21;95812.56;;;16.83;100.00
7662;BME280;30314;48.184;11.510;2022-07-29T04:46:56;95818.91;;;16.91;100.00
7662;BME280;30314;48.184;11.510;2022-07-29T04:49:24;95812.56;;;16.96;100.00
7662;BME280;30314;48.184;11.510;2022-07-29T04:51:52;95811.63;;;17.00;100.00
7662;BME280;30314;48.184;11.510;2022-07-29T04:54:20;95817.84;;;17.04;100.00
7662;BME280;30314;48.184;11.510;2022-07-29T04:56:50;95811.13;;;16.98;100.00
7662;BME280;30314;48.184;11.510;2022-07-29T04:59:18;95819.84;;;17.20;100.00
7662;BME280;30314;48.184;11.510;2022-07-29T05:01:46;95818.63;;;17.17;100.00
7662;BME280;30314;48.184;11.510;2022-07-29T05:04:13;95816.84;;;17.22;100.00
7662;BME280;30314;48.184;11.510;2022-07-29T05:06:42;95824.94;;;17.38;100.00
7662;BME280;30314;48.184;11.510;2022-07-29T05:09:09;95822.84;;;17.31;100.00
7662;BME280;30314;48.184;11.510;2022-07-29T05:11:37;95813.06;;;17.23;100.00
7662;BME280;30314;48.184;11.510;2022-07-29T05:14:06;95831.41;;;17.37;100.00
7662;BME280;30314;48.184;11.510;2022-07-29T05:16:34;95825.63;;;17.35;100.00
7662;BME280;30314;48.184;11.510;2022-07-29T05:19:02;95826.06;;;17.37;100.00
7662;BME280;30314;48.184;11.510;2022-07-29T05:21:30;95814.75;;;17.27;100.00
7662;BME280;30314;48.184;11.510;2022-07-29T05:23:58;95825.88;;;17.42;100.00
7662;BME280;30314;48.184;11.510;2022-07-29T05:26:25;95826.84;;;17.50;100.00
7662;BME280;30314;48.184;11.510;2022-07-29T05:28:53;95836.97;;;17.56;100.00
7662;BME280;30314;48.184;11.510;2022-07-29T05:31:22;95836.97;;;17.56;100.00
7662;BME280;30314;48.184;11.510;2022-07-29T05:33:50;95821.38;;;17.58;100.00
7662;BME280;30314;48.184;11.510;2022-07-29T05:36:18;95835.19;;;17.60;100.00
7662;BME280;30314;48.184;11.510;2022-07-29T05:38:46;95833.75;;;17.63;100.00
7662;BME280;30314;48.184;11.510;2022-07-29T05:41:13;95839.97;;;17.67;100.00
7662;BME280;30314;48.184;11.510;2022-07-29T05:43:41;95848.09;;;17.71;100.00
7662;BME280;30314;48.184;11.510;2022-07-29T05:46:09;95841.63;;;17.72;100.00
7662;BME280;30314;48.184;11.510;2022-07-29T05:48:39;95841.41;;;17.77;100.00
7662;BME280;30314;48.184;11.510;2022-07-29T05:51:07;95854.19;;;17.84;100.00
7662;BME280;30314;48.184;11.510;2022-07-29T05:53:35;95853.19;;;17.88;100.00
7662;BME280;30314;48.184;11.510;2022-07-29T05:56:04;95847.50;;;17.90;100.00
7662;BME280;30314;48.184;11.510;2022-07-29T05:58:32;95842.03;;;17.99;100.00
7662;BME280;30314;48.184;11.510;2022-07-29T06:01:00;95842.94;;;18.03;100.00
7662;BME280;30314;48.184;11.510;2022-07-29T06:03:28;95848.06;;;18.08;100.00
7662;BME280;30314;48.184;11.510;2022-07-29T06:05:57;95836.78;;;18.15;100.00
7662;BME280;30314;48.184;11.510;2022-07-29T06:08:25;95834.00;;;18.11;100.00
7662;BME280;30314;48.184;11.510;2022-07-29T06:10:53;95848.81;;;18.50;100.00
7662;BME280;30314;48.184;11.510;2022-07-29T06:13:21;95840.94;;;18.41;100.00
7662;BME280;30314;48.184;11.510;2022-07-29T06:15:48;95840.72;;;18.62;100.00
7662;BME280;30314;48.184;11.510;2022-07-29T06:18:16;95838.25;;;18.57;100.00
7662;BME280;30314;48.184;11.510;2022-07-29T06:20:44;95846.69;;;18.71;100.00
7662;BME280;30314;48.184;11.510;2022-07-29T06:23:13;95843.94;;;18.84;100.00
7662;BME280;30314;48.184;11.510;2022-07-29T06:25:41;95847.91;;;18.90;100.00
7662;BME280;30314;48.184;11.510;2022-07-29T06:28:10;95828.81;;;18.76;100.00
7662;BME280;30314;48.184;11.510;2022-07-29T06:30:39;95837.38;;;18.81;100.00
7662;BME280;30314;48.184;11.510;2022-07-29T06:33:07;95853.94;;;18.99;100.00
7662;BME280;30314;48.184;11.510;2022-07-29T06:35:35;95857.19;;;19.09;100.00
7662;BME280;30314;48.184;11.510;2022-07-29T06:38:08;95853.47;;;19.13;100.00
7662;BME280;30314;48.184;11.510;2022-07-29T06:40:57;95858.25;;;19.20;100.00
7662;BME280;30314;48.184;11.510;2022-07-29T06:43:31;95852.03;;;19.16;100.00
7662;BME280;30314;48.184;11.510;2022-07-29T06:46:01;95858.41;;;19.27;100.00
7662;BME280;30314;48.184;11.510;2022-07-29T06:48:30;95859.78;;;19.37;100.00
7662;BME280;30314;48.184;11.510;2022-07-29T06:50:58;95859.78;;;19.37;100.00
7662;BME280;30314;48.184;11.510;2022-07-29T06:53:26;95868.44;;;19.47;100.00
7662;BME280;30314;48.184;11.510;2022-07-29T06:55:54;95866.22;;;19.68;99.85
7662;BME280;30314;48.184;11.510;2022-07-29T06:58:23;95869.09;;;19.76;99.17
7662;BME280;30314;48.184;11.510;2022-07-29T07:00:55;95873.66;;;19.75;100.00
7662;BME280;30314;48.184;11.510;2022-07-29T07:03:23;95867.25;;;19.80;100.00
7662;BME280;30314;48.184;11.510;2022-07-29T07:05:51;95863.34;;;19.77;100.00
7662;BME280;30314;48.184;11.510;2022-07-29T07:08:20;95880.75;;;19.83;100.00
7662;BME280;30314;48.184;11.510;2022-07-29T07:10:48;95883.34;;;19.80;100.00
7662;BME280;30314;48.184;11.510;2022-07-29T07:13:16;95887.25;;;19.82;100.00
7662;BME280;30314;48.184;11.510;2022-07-29T07:15:46;95875.09;;;19.89;100.00
7662;BME280;30314;48.184;11.510;2022-07-29T07:18:15;95869.59;;;19.97;100.00
7662;BME280;30314;48.184;11.510;2022-07-29T07:20:43;95871.34;;;20.09;98.83
7662;BME280;30314;48.184;11.510;2022-07-29T07:23:11;95866.41;;;20.11;99.96
7662;BME280;30314;48.184;11.510;2022-07-29T07:25:39;95869.81;;;20.28;100.00
7662;BME280;30314;48.184;11.510;2022-07-29T07:28:06;95866.13;;;20.36;100.00
7662;BME280;30314;48.184;11.510;2022-07-29T07:30:34;95869.66;;;20.40;98.22
7662;BME280;30314;48.184;11.510;2022-07-29T07:33:04;95841.69;;;20.41;93.08
7662;BME280;30314;48.184;11.510;2022-07-29T07:35:32;95867.31;;;20.59;94.89
7662;BME280;30314;48.184;11.510;2022-07-29T07:38:00;95857.41;;;20.63;90.04
7662;BME280;30314;48.184;11.510;2022-07-29T07:40:28;95846.34;;;20.84;92.19
7662;BME280;30314;48.184;11.510;2022-07-29T07:42:55;95853.03;;;20.94;87.00
7662;BME280;30314;48.184;11.510;2022-07-29T07:45:23;95867.03;;;21.07;89.61
7662;BME280;30314;48.184;11.510;2022-07-29T07:47:51;95863.88;;;21.01;85.54
7662;BME280;30314;48.184;11.510;2022-07-29T07:50:20;95867.47;;;21.09;84.86
7662;BME280;30314;48.184;11.510;2022-07-29T07:52:49;95862.75;;;21.02;87.48
7662;BME280;30314;48.184;11.510;2022-07-29T07:55:18;95858.13;;;21.26;82.07
7662;BME280;30314;48.184;11.510;2022-07-29T07:57:47;95864.72;;;21.29;82.53
7662;BME280;30314;48.184;11.510;2022-07-29T08:00:16;95851.69;;;21.31;83.45
7662;BME280;30314;48.184;11.510;2022-07-29T08:02:48;95842.81;;;21.26;82.63
7662;BME280;30314;48.184;11.510;2022-07-29T08:05:16;95865.81;;;21.51;80.92
7662;BME280;30314;48.184;11.510;2022-07-29T08:07:46;95871.34;;;21.62;82.77
7662;BME280;30314;48.184;11.510;2022-07-29T08:10:14;95873.66;;;21.87;79.82
7662;BME280;30314;48.184;11.510;2022-07-29T08:13:03;95866.91;;;22.00;79.95
7662;BME280;30314;48.184;11.510;2022-07-29T08:15:30;95867.44;;;22.09;82.20
7662;BME280;30314;48.184;11.510;2022-07-29T08:17:59;95878.97;;;22.75;77.27
7662;BME280;30314;48.184;11.510;2022-07-29T08:20:33;95865.13;;;23.63;73.98
7662;BME280;30314;48.184;11.510;2022-07-29T08:23:03;95869.75;;;24.29;69.57
7662;BME280;30314;48.184;11.510;2022-07-29T08:25:32;95870.81;;;24.10;68.74
7662;BME280;30314;48.184;11.510;2022-07-29T08:28:04;95865.19;;;23.81;70.04
7662;BME280;30314;48.184;11.510;2022-07-29T08:30:31;95861.91;;;23.46;73.93
7662;BME280;30314;48.184;11.510;2022-07-29T08:32:59;95863.00;;;23.42;73.73
7662;BME280;30314;48.184;11.510;2022-07-29T08:35:28;95865.19;;;23.25;73.80
7662;BME280;30314;48.184;11.510;2022-07-29T08:38:03;95872.06;;;23.19;76.23
7662;BME280;30314;48.184;11.510;2022-07-29T08:40:30;95861.50;;;22.99;75.91
7662;BME280;30314;48.184;11.510;2022-07-29T08:42:59;95865.72;;;23.00;77.59
7662;BME280;30314;48.184;11.510;2022-07-29T08:45:41;95868.09;;;23.05;79.75
7662;BME280;30314;48.184;11.510;2022-07-29T08:48:14;95869.25;;;23.08;74.97
7662;BME280;30314;48.184;11.510;2022-07-29T08:50:43;95866.53;;;23.01;76.08
7662;BME280;30314;48.184;11.510;2022-07-29T08:53:15;95868.06;;;23.02;78.24
7662;BME280;30314;48.184;11.510;2022-07-29T08:55:44;95865.59;;;22.86;75.97
7662;BME280;30314;48.184;11.510;2022-07-29T08:58:13;95881.81;;;22.89;78.16
7662;BME280;30314;48.184;11.510;2022-07-29T09:00:44;95885.31;;;22.93;75.36
7662;BME280;30314;48.184;11.510;2022-07-29T09:03:18;95883.31;;;22.87;77.35
7662;BME280;30314;48.184;11.510;2022-07-29T09:05:48;95885.25;;;22.86;80.70
7662;BME280;30314;48.184;11.510;2022-07-29T09:08:17;95883.75;;;22.92;76.51
7662;BME280;30314;48.184;11.510;2022-07-29T09:10:46;95890.38;;;22.99;80.47
7662;BME280;30314;48.184;11.510;2022-07-29T09:13:14;95883.00;;;22.95;77.83
7662;BME280;30314;48.184;11.510;2022-07-29T09:15:42;95880.03;;;23.04;79.89
7662;BME280;30314;48.184;11.510;2022-07-29T09:18:10;95885.84;;;23.06;80.65
7662;BME280;30314;48.184;11.510;2022-07-29T09:20:56;95882.47;;;23.17;77.72
7662;BME280;30314;48.184;11.510;2022-07-29T09:24:01;95878.53;;;23.11;79.58
7662;BME280;30314;48.184;11.510;2022-07-29T09:26:29;95875.63;;;23.27;76.72
7662;BME280;30314;48.184;11.510;2022-07-29T09:28:59;95865.59;;;23.27;77.78
7662;BME280;30314;48.184;11.510;2022-07-29T09:31:32;95874.94;;;23.37;77.71
7662;BME280;30314;48.184;11.510;2022-07-29T09:34:01;95869.88;;;23.32;74.36
7662;BME280;30314;48.184;11.510;2022-07-29T09:36:29;95878.47;;;23.48;76.33
7662;BME280;30314;48.184;11.510;2022-07-29T09:38:59;95873.16;;;23.56;73.72
7662;BME280;30314;48.184;11.510;2022-07-29T09:41:27;95880.47;;;23.55;74.40
7662;BME280;30314;48.184;11.510;2022-07-29T09:43:56;95877.34;;;23.49;76.60
7662;BME280;30314;48.184;11.510;2022-07-29T09:46:24;95872.22;;;23.33;74.02
7662;BME280;30314;48.184;11.510;2022-07-29T09:49:09;95877.50;;;23.26;76.00
7662;BME280;30314;48.184;11.510;2022-07-29T09:51:38;95868.63;;;23.22;78.71
7662;BME280;30314;48.184;11.510;2022-07-29T09:54:23;95877.84;;;23.17;77.22
7662;BME280;30314;48.184;11.510;2022-07-29T09:56:52;95870.09;;;23.12;76.91
7662;BME280;30314;48.184;11.510;2022-07-29T09:59:21;95873.09;;;23.07;81.06
7662;BME280;30314;48.184;11.510;2022-07-29T10:01:52;95872.34;;;23.06;77.40
7662;BME280;30314;48.184;11.510;2022-07-29T10:04:21;95872.31;;;23.03;77.94
7662;BME280;30314;48.184;11.510;2022-07-29T10:06:56;95872.81;;;23.16;79.93
7662;BME280;30314;48.184;11.510;2022-07-29T10:09:32;95862.81;;;23.16;80.21
7662;BME280;30314;48.184;11.510;2022-07-29T10:12:07;95873.28;;;23.25;78.19
7662;BME280;30314;48.184;11.510;2022-07-29T10:14:36;95865.16;;;23.21;77.96
7662;BME280;30314;48.184;11.510;2022-07-29T10:17:05;95861.41;;;23.30;81.27
7662;BME280;30314;48.184;11.510;2022-07-29T10:19:34;95866.44;;;23.31;80.24
7662;BME280;30314;48.184;11.510;2022-07-29T10:22:04;95871.44;;;23.29;78.29
7662;BME280;30314;48.184;11.510;2022-07-29T10:24:34;95870.56;;;23.25;78.00
7662;BME280;30314;48.184;11.510;2022-07-29T10:27:05;95875.69;;;23.34;78.42
7662;BME280;30314;48.184;11.510;2022-07-29T10:29:33;95873.41;;;23.36;78.48
7662;BME280;30314;48.184;11.510;2022-07-29T10:32:11;95871.81;;;23.31;77.92
7662;BME280;30314;48.184;11.510;2022-07-29T10:34:54;95866.44;;;23.35;81.27
7662;BME280;30314;48.184;11.510;2022-07-29T10:37:29;95873.81;;;23.42;77.68
7662;BME280;30314;48.184;11.510;2022-07-29T10:40:11;95871.13;;;23.45;78.40
7662;BME280;30314;48.184;11.510;2022-07-29T10:43:07;95860.13;;;23.69;80.46
7662;BME280;30314;48.184;11.510;2022-07-29T10:45:42;95857.56;;;23.94;80.14
7662;BME280;30314;48.184;11.510;2022-07-29T10:48:11;95856.97;;;24.19;71.77
7662;BME280;30314;48.184;11.510;2022-07-29T10:50:54;95856.63;;;24.31;77.54
7662;BME280;30314;48.184;11.510;2022-07-29T10:53:22;95857.84;;;24.56;71.13
7662;BME280;30314;48.184;11.510;2022-07-29T10:55:53;95857.88;;;24.70;69.73
7662;BME280;30314;48.184;11.510;2022-07-29T10:58:22;95851.78;;;25.13;66.00
7662;BME280;30314;48.184;11.510;2022-07-29T11:00:52;95841.34;;;24.97;68.47
7662;BME280;30314;48.184;11.510;2022-07-29T11:03:45;95845.59;;;25.13;66.91
7662;BME280;30314;48.184;11.510;2022-07-29T11:06:18;95850.25;;;24.98;68.66
7662;BME280;30314;48.184;11.510;2022-07-29T11:09:17;95851.00;;;24.87;65.48
7662;BME280;30314;48.184;11.510;2022-07-29T11:15:21;95854.88;;;24.86;66.53
7662;BME280;30314;48.184;11.510;2022-07-29T11:18:07;95842.50;;;25.40;66.91
7662;BME280;30314;48.184;11.510;2022-07-29T11:20:44;95844.84;;;25.45;64.68
7662;BME280;30314;48.184;11.510;2022-07-29T11:23:23;95854.50;;;25.24;63.67
7662;BME280;30314;48.184;11.510;2022-07-29T11:26:17;95841.75;;;25.07;69.75
7662;BME280;30314;48.184;11.510;2022-07-29T11:28:53;95854.09;;;24.97;67.46
7662;BME280;30314;48.184;11.510;2022-07-29T11:31:36;95847.53;;;24.94;64.54
7662;BME280;30314;48.184;11.510;2022-07-29T11:34:28;95839.41;;;25.05;64.03
7662;BME280;30314;48.184;11.510;2022-07-29T11:37:20;95835.56;;;25.20;66.57
7662;BME280;30314;48.184;11.510;2022-07-29T11:40:16;95834.78;;;25.71;64.36
7662;BME280;30314;48.184;11.510;2022-07-29T11:42:46;95833.53;;;26.01;59.83
7662;BME280;30314;48.184;11.510;2022-07-29T11:45:23;95838.53;;;26.06;58.04
7662;BME280;30314;48.184;11.510;2022-07-29T11:48:15;95834.31;;;25.98;58.93
7662;BME280;30314;48.184;11.510;2022-07-29T11:51:09;95837.06;;;25.76;54.88
7662;BME280;30314;48.184;11.510;2022-07-29T11:53:39;95837.84;;;25.47;58.13
7662;BME280;30314;48.184;11.510;2022-07-29T11:56:08;95833.25;;;25.30;57.17
7662;BME280;30314;48.184;11.510;2022-07-29T11:58:41;95831.69;;;25.14;58.98
7662;BME280;30314;48.184;11.510;2022-07-29T12:01:16;95826.28;;;25.11;56.79
7662;BME280;30314;48.184;11.510;2022-07-29T12:03:44;95828.63;;;24.98;57.86
7662;BME280;30314;48.184;11.510;2022-07-29T12:06:13;95823.19;;;24.94;57.69
7662;BME280;30314;48.184;11.510;2022-07-29T12:08:44;95818.19;;;24.89;61.29
7662;BME280;30314;48.184;11.510;2022-07-29T12:11:19;95827.81;;;24.86;58.16
7662;BME280;30314;48.184;11.510;2022-07-29T12:13:49;95817.72;;;24.76;62.19
7662;BME280;30314;48.184;11.510;2022-07-29T12:16:20;95821.25;;;24.80;60.90
7662;BME280;30314;48.184;11.510;2022-07-29T12:18:55;95812.69;;;24.74;58.40
7662;BME280;30314;48.184;11.510;2022-07-29T12:21:23;95817.75;;;24.69;64.85
7662;BME280;30314;48.184;11.510;2022-07-29T12:23:55;95807.69;;;24.66;64.22
7662;BME280;30314;48.184;11.510;2022-07-29T12:26:31;95796.47;;;24.74;62.33
7662;BME280;30314;48.184;11.510;2022-07-29T12:29:02;95803.09;;;24.91;60.64
7662;BME280;30314;48.184;11.510;2022-07-29T12:31:38;95806.19;;;24.83;59.24
7662;BME280;30314;48.184;11.510;2022-07-29T12:34:10;95796.91;;;24.84;56.26
7662;BME280;30314;48.184;11.510;2022-07-29T12:36:39;95806.19;;;24.79;61.52
7662;BME280;30314;48.184;11.510;2022-07-29T12:39:08;95809.25;;;24.81;56.48
7662;BME280;30314;48.184;11.510;2022-07-29T12:41:37;95809.63;;;24.72;56.81
7662;BME280;30314;48.184;11.510;2022-07-29T12:44:04;95803.84;;;24.74;61.18
7662;BME280;30314;48.184;11.510;2022-07-29T12:46:32;95808.06;;;24.64;60.53
7662;BME280;30314;48.184;11.510;2022-07-29T12:49:02;95799.19;;;24.63;62.22
7662;BME280;30314;48.184;11.510;2022-07-29T12:51:32;95798.75;;;24.43;61.66
7662;BME280;30314;48.184;11.510;2022-07-29T12:54:05;95804.94;;;24.44;60.71
7662;BME280;30314;48.184;11.510;2022-07-29T12:56:34;95796.38;;;24.27;58.06
7662;BME280;30314;48.184;11.510;2022-07-29T12:59:12;95808.78;;;24.35;59.18
7662;BME280;30314;48.184;11.510;2022-07-29T13:01:40;95809.88;;;24.20;61.58
7662;BME280;30314;48.184;11.510;2022-07-29T13:04:09;95787.06;;;24.03;62.80
7662;BME280;30314;48.184;11.510;2022-07-29T13:06:40;95802.91;;;24.04;61.27
7662;BME280;30314;48.184;11.510;2022-07-29T13:09:13;95802.81;;;23.90;63.84
7662;BME280;30314;48.184;11.510;2022-07-29T13:11:41;95805.50;;;23.90;62.45
7662;BME280;30314;48.184;11.510;2022-07-29T13:14:30;95798.50;;;23.82;62.39
7662;BME280;30314;48.184;11.510;2022-07-29T13:17:03;95800.03;;;23.79;62.81
7662;BME280;30314;48.184;11.510;2022-07-29T13:19:35;95801.25;;;23.89;63.30
7662;BME280;30314;48.184;11.510;2022-07-29T13:22:03;95797.31;;;23.75;63.80